Terminal Aerodrome Forecast
Issued by NWS Cleveland, OH

Home | Current Version | Previous Version | Text Only | Print | Product List | Glossary On
Versions: 1 2 3 4 5 6 7 8 9 10 11 12 13 14 15 16 17 18 19 20 21 22 23
000
FTUS41 KCLE 272300
TAFYNG
TAF
KYNG 272340Z 2800/2824 35014KT 3SM -SN OVC015
      TEMPO 2800/2803 6SM -SN SCT015 OVC025
     FM280300 33012KT 6SM -SN OVC030
     FM280600 33010KT P6SM OVC035
     FM281700 33010KT P6SM SCT035=

USA.gov is the U.S. government's official web portal to all federal, state and local government web resources and services.